sensor_id;sensor_type;location;lat;lon;timestamp;P1;durP1;ratioP1;P2;durP2;ratioP2
10725;SDS011;5414;59.782;16.378;2023-04-24T00:02:13;1.90;;;1.50;;
10725;SDS011;5414;59.782;16.378;2023-04-24T00:04:41;2.97;;;1.60;;
10725;SDS011;5414;59.782;16.378;2023-04-24T00:07:09;4.00;;;1.70;;
10725;SDS011;5414;59.782;16.378;2023-04-24T00:09:35;2.20;;;1.60;;
10725;SDS011;5414;59.782;16.378;2023-04-24T00:12:01;1.83;;;1.40;;
10725;SDS011;5414;59.782;16.378;2023-04-24T00:14:29;1.50;;;1.40;;
10725;SDS011;5414;59.782;16.378;2023-04-24T00:16:55;2.17;;;1.20;;
10725;SDS011;5414;59.782;16.378;2023-04-24T00:19:21;2.70;;;1.47;;
10725;SDS011;5414;59.782;16.378;2023-04-24T00:21:47;2.83;;;1.50;;
10725;SDS011;5414;59.782;16.378;2023-04-24T00:24:17;2.57;;;1.50;;
10725;SDS011;5414;59.782;16.378;2023-04-24T00:26:43;2.07;;;1.50;;
10725;SDS011;5414;59.782;16.378;2023-04-24T00:29:09;2.37;;;1.50;;
10725;SDS011;5414;59.782;16.378;2023-04-24T00:31:35;2.30;;;1.57;;
10725;SDS011;5414;59.782;16.378;2023-04-24T00:34:01;2.53;;;1.60;;
10725;SDS011;5414;59.782;16.378;2023-04-24T00:36:28;2.17;;;1.60;;
10725;SDS011;5414;59.782;16.378;2023-04-24T00:38:55;2.20;;;1.43;;
10725;SDS011;5414;59.782;16.378;2023-04-24T00:41:21;1.63;;;1.30;;
10725;SDS011;5414;59.782;16.378;2023-04-24T00:43:48;2.37;;;1.57;;
10725;SDS011;5414;59.782;16.378;2023-04-24T00:46:14;1.90;;;1.40;;
10725;SDS011;5414;59.782;16.378;2023-04-24T00:48:41;2.60;;;1.57;;
10725;SDS011;5414;59.782;16.378;2023-04-24T00:51:07;1.60;;;1.20;;
10725;SDS011;5414;59.782;16.378;2023-04-24T00:53:33;1.90;;;1.27;;
10725;SDS011;5414;59.782;16.378;2023-04-24T00:55:59;1.50;;;1.20;;
10725;SDS011;5414;59.782;16.378;2023-04-24T00:58:25;1.77;;;1.50;;
10725;SDS011;5414;59.782;16.378;2023-04-24T01:00:52;2.27;;;1.20;;
10725;SDS011;5414;59.782;16.378;2023-04-24T01:03:19;2.77;;;1.30;;
10725;SDS011;5414;59.782;16.378;2023-04-24T01:05:46;3.17;;;1.40;;
10725;SDS011;5414;59.782;16.378;2023-04-24T01:08:13;1.67;;;1.10;;
10725;SDS011;5414;59.782;16.378;2023-04-24T01:10:40;2.50;;;1.40;;
10725;SDS011;5414;59.782;16.378;2023-04-24T01:13:09;1.77;;;1.10;;
10725;SDS011;5414;59.782;16.378;2023-04-24T01:15:36;2.00;;;1.53;;
10725;SDS011;5414;59.782;16.378;2023-04-24T01:18:02;1.73;;;1.20;;
10725;SDS011;5414;59.782;16.378;2023-04-24T01:20:28;1.80;;;1.00;;
10725;SDS011;5414;59.782;16.378;2023-04-24T01:22:55;2.70;;;1.17;;
10725;SDS011;5414;59.782;16.378;2023-04-24T01:25:21;2.77;;;1.30;;
10725;SDS011;5414;59.782;16.378;2023-04-24T01:27:48;2.70;;;1.20;;
10725;SDS011;5414;59.782;16.378;2023-04-24T01:30:14;2.13;;;0.90;;
10725;SDS011;5414;59.782;16.378;2023-04-24T01:32:40;2.97;;;1.00;;
10725;SDS011;5414;59.782;16.378;2023-04-24T01:35:09;1.17;;;1.00;;
10725;SDS011;5414;59.782;16.378;2023-04-24T01:37:35;2.10;;;1.10;;
10725;SDS011;5414;59.782;16.378;2023-04-24T01:40:07;2.47;;;1.23;;
10725;SDS011;5414;59.782;16.378;2023-04-24T01:42:34;2.30;;;0.93;;
10725;SDS011;5414;59.782;16.378;2023-04-24T01:45:00;3.17;;;1.03;;
10725;SDS011;5414;59.782;16.378;2023-04-24T01:47:28;1.73;;;0.90;;
10725;SDS011;5414;59.782;16.378;2023-04-24T01:49:55;1.93;;;0.90;;
10725;SDS011;5414;59.782;16.378;2023-04-24T01:52:21;1.73;;;1.20;;
10725;SDS011;5414;59.782;16.378;2023-04-24T01:54:47;1.60;;;1.00;;
10725;SDS011;5414;59.782;16.378;2023-04-24T01:57:14;2.00;;;1.10;;
10725;SDS011;5414;59.782;16.378;2023-04-24T01:59:40;1.70;;;1.13;;
10725;SDS011;5414;59.782;16.378;2023-04-24T02:02:06;1.10;;;0.90;;
10725;SDS011;5414;59.782;16.378;2023-04-24T02:04:32;2.30;;;1.10;;
10725;SDS011;5414;59.782;16.378;2023-04-24T02:06:58;1.00;;;0.90;;
10725;SDS011;5414;59.782;16.378;2023-04-24T02:09:24;2.60;;;0.90;;
10725;SDS011;5414;59.782;16.378;2023-04-24T02:11:50;2.20;;;0.93;;
10725;SDS011;5414;59.782;16.378;2023-04-24T02:14:16;1.57;;;1.10;;
10725;SDS011;5414;59.782;16.378;2023-04-24T02:16:42;1.87;;;1.10;;
10725;SDS011;5414;59.782;16.378;2023-04-24T02:19:08;1.50;;;0.90;;
10725;SDS011;5414;59.782;16.378;2023-04-24T02:21:35;1.23;;;0.90;;
10725;SDS011;5414;59.782;16.378;2023-04-24T02:24:01;1.30;;;0.90;;
10725;SDS011;5414;59.782;16.378;2023-04-24T02:26:27;2.60;;;1.10;;
10725;SDS011;5414;59.782;16.378;2023-04-24T02:28:53;2.03;;;1.00;;
10725;SDS011;5414;59.782;16.378;2023-04-24T02:31:19;1.70;;;1.10;;
10725;SDS011;5414;59.782;16.378;2023-04-24T02:33:45;1.43;;;1.00;;
10725;SDS011;5414;59.782;16.378;2023-04-24T02:36:11;1.20;;;0.90;;
10725;SDS011;5414;59.782;16.378;2023-04-24T02:38:38;2.17;;;1.00;;
10725;SDS011;5414;59.782;16.378;2023-04-24T02:41:04;1.57;;;1.00;;
10725;SDS011;5414;59.782;16.378;2023-04-24T02:43:31;1.47;;;1.10;;
10725;SDS011;5414;59.782;16.378;2023-04-24T02:45:57;1.53;;;1.03;;
10725;SDS011;5414;59.782;16.378;2023-04-24T02:48:23;1.50;;;1.00;;
10725;SDS011;5414;59.782;16.378;2023-04-24T02:50:50;1.37;;;0.90;;
10725;SDS011;5414;59.782;16.378;2023-04-24T02:53:16;1.43;;;0.90;;
10725;SDS011;5414;59.782;16.378;2023-04-24T02:55:42;1.37;;;1.00;;
10725;SDS011;5414;59.782;16.378;2023-04-24T02:58:08;1.10;;;1.00;;
10725;SDS011;5414;59.782;16.378;2023-04-24T03:00:37;1.10;;;1.00;;
10725;SDS011;5414;59.782;16.378;2023-04-24T03:03:03;1.90;;;0.97;;
10725;SDS011;5414;59.782;16.378;2023-04-24T03:05:30;1.50;;;1.20;;
10725;SDS011;5414;59.782;16.378;2023-04-24T03:07:56;1.23;;;1.10;;
10725;SDS011;5414;59.782;16.378;2023-04-24T03:10:22;1.23;;;1.10;;
10725;SDS011;5414;59.782;16.378;2023-04-24T03:12:49;1.70;;;1.03;;
10725;SDS011;5414;59.782;16.378;2023-04-24T03:15:15;1.17;;;1.00;;
10725;SDS011;5414;59.782;16.378;2023-04-24T03:17:41;2.30;;;1.10;;
10725;SDS011;5414;59.782;16.378;2023-04-24T03:20:07;1.20;;;1.07;;
10725;SDS011;5414;59.782;16.378;2023-04-24T03:22:34;2.63;;;1.20;;
10725;SDS011;5414;59.782;16.378;2023-04-24T03:25:00;1.37;;;1.17;;
10725;SDS011;5414;59.782;16.378;2023-04-24T03:27:26;1.67;;;1.20;;
10725;SDS011;5414;59.782;16.378;2023-04-24T03:29:52;2.03;;;1.20;;
10725;SDS011;5414;59.782;16.378;2023-04-24T03:32:20;1.50;;;1.20;;
10725;SDS011;5414;59.782;16.378;2023-04-24T03:34:50;1.70;;;1.20;;
10725;SDS011;5414;59.782;16.378;2023-04-24T03:37:16;2.20;;;1.17;;
10725;SDS011;5414;59.782;16.378;2023-04-24T03:39:42;2.03;;;1.10;;
10725;SDS011;5414;59.782;16.378;2023-04-24T03:42:08;2.73;;;1.20;;
10725;SDS011;5414;59.782;16.378;2023-04-24T03:44:35;1.53;;;1.10;;
10725;SDS011;5414;59.782;16.378;2023-04-24T03:47:01;2.00;;;1.10;;
10725;SDS011;5414;59.782;16.378;2023-04-24T03:49:27;1.43;;;1.20;;
10725;SDS011;5414;59.782;16.378;2023-04-24T03:51:53;1.37;;;1.20;;
10725;SDS011;5414;59.782;16.378;2023-04-24T03:54:19;1.20;;;1.10;;
10725;SDS011;5414;59.782;16.378;2023-04-24T03:56:45;1.80;;;1.40;;
10725;SDS011;5414;59.782;16.378;2023-04-24T03:59:11;1.60;;;1.30;;
10725;SDS011;5414;59.782;16.378;2023-04-24T04:01:38;1.53;;;1.20;;
10725;SDS011;5414;59.782;16.378;2023-04-24T04:04:04;1.30;;;1.20;;
10725;SDS011;5414;59.782;16.378;2023-04-24T04:06:30;2.10;;;1.30;;
10725;SDS011;5414;59.782;16.378;2023-04-24T04:08:57;1.73;;;1.20;;
10725;SDS011;5414;59.782;16.378;2023-04-24T04:11:23;1.63;;;1.30;;
10725;SDS011;5414;59.782;16.378;2023-04-24T04:13:49;1.73;;;1.20;;
10725;SDS011;5414;59.782;16.378;2023-04-24T04:16:15;1.80;;;1.50;;
10725;SDS011;5414;59.782;16.378;2023-04-24T04:18:42;1.50;;;1.30;;
10725;SDS011;5414;59.782;16.378;2023-04-24T04:21:08;1.63;;;1.30;;
10725;SDS011;5414;59.782;16.378;2023-04-24T04:23:34;2.40;;;1.50;;
10725;SDS011;5414;59.782;16.378;2023-04-24T04:26:01;1.60;;;1.27;;
10725;SDS011;5414;59.782;16.378;2023-04-24T04:28:27;1.90;;;1.53;;
10725;SDS011;5414;59.782;16.378;2023-04-24T04:30:53;1.93;;;1.60;;
10725;SDS011;5414;59.782;16.378;2023-04-24T04:33:20;1.83;;;1.70;;
10725;SDS011;5414;59.782;16.378;2023-04-24T04:35:46;2.03;;;1.37;;
10725;SDS011;5414;59.782;16.378;2023-04-24T04:38:17;1.93;;;1.33;;
10725;SDS011;5414;59.782;16.378;2023-04-24T04:40:43;2.10;;;1.30;;
10725;SDS011;5414;59.782;16.378;2023-04-24T04:43:09;1.43;;;1.30;;
10725;SDS011;5414;59.782;16.378;2023-04-24T04:45:36;1.30;;;1.07;;
10725;SDS011;5414;59.782;16.378;2023-04-24T04:48:03;2.63;;;1.60;;
10725;SDS011;5414;59.782;16.378;2023-04-24T04:50:32;2.27;;;1.30;;
10725;SDS011;5414;59.782;16.378;2023-04-24T04:52:58;1.50;;;1.40;;
10725;SDS011;5414;59.782;16.378;2023-04-24T04:55:24;1.57;;;1.30;;
10725;SDS011;5414;59.782;16.378;2023-04-24T04:57:51;1.30;;;1.20;;
10725;SDS011;5414;59.782;16.378;2023-04-24T05:00:17;1.80;;;1.30;;
10725;SDS011;5414;59.782;16.378;2023-04-24T05:02:44;2.03;;;1.50;;
10725;SDS011;5414;59.782;16.378;2023-04-24T05:05:10;1.70;;;1.20;;
10725;SDS011;5414;59.782;16.378;2023-04-24T05:07:36;1.40;;;1.30;;
10725;SDS011;5414;59.782;16.378;2023-04-24T05:10:02;1.37;;;1.27;;
10725;SDS011;5414;59.782;16.378;2023-04-24T05:12:28;1.30;;;1.13;;
10725;SDS011;5414;59.782;16.378;2023-04-24T05:14:54;1.40;;;1.30;;
10725;SDS011;5414;59.782;16.378;2023-04-24T05:17:20;3.17;;;1.47;;
10725;SDS011;5414;59.782;16.378;2023-04-24T05:19:46;2.07;;;1.33;;
10725;SDS011;5414;59.782;16.378;2023-04-24T05:22:13;1.73;;;1.50;;
10725;SDS011;5414;59.782;16.378;2023-04-24T05:24:39;1.50;;;1.10;;
10725;SDS011;5414;59.782;16.378;2023-04-24T05:27:05;1.43;;;1.17;;
10725;SDS011;5414;59.782;16.378;2023-04-24T05:29:32;1.90;;;1.30;;
10725;SDS011;5414;59.782;16.378;2023-04-24T05:31:58;1.30;;;1.20;;
10725;SDS011;5414;59.782;16.378;2023-04-24T05:34:25;1.30;;;1.20;;
10725;SDS011;5414;59.782;16.378;2023-04-24T05:36:51;1.13;;;1.03;;
10725;SDS011;5414;59.782;16.378;2023-04-24T05:39:17;1.57;;;1.00;;
10725;SDS011;5414;59.782;16.378;2023-04-24T05:41:43;1.63;;;1.00;;
10725;SDS011;5414;59.782;16.378;2023-04-24T05:44:09;1.20;;;1.00;;
10725;SDS011;5414;59.782;16.378;2023-04-24T05:46:35;1.27;;;1.10;;
10725;SDS011;5414;59.782;16.378;2023-04-24T05:49:01;1.00;;;0.90;;
10725;SDS011;5414;59.782;16.378;2023-04-24T05:51:28;1.13;;;1.00;;
10725;SDS011;5414;59.782;16.378;2023-04-24T05:53:54;1.07;;;1.00;;
10725;SDS011;5414;59.782;16.378;2023-04-24T05:56:20;1.20;;;1.10;;
10725;SDS011;5414;59.782;16.378;2023-04-24T05:58:46;1.30;;;1.07;;
10725;SDS011;5414;59.782;16.378;2023-04-24T06:01:13;0.93;;;0.80;;
10725;SDS011;5414;59.782;16.378;2023-04-24T06:03:41;1.80;;;0.93;;
10725;SDS011;5414;59.782;16.378;2023-04-24T06:06:08;1.23;;;1.13;;
10725;SDS011;5414;59.782;16.378;2023-04-24T06:08:34;1.43;;;1.30;;
10725;SDS011;5414;59.782;16.378;2023-04-24T06:11:01;1.40;;;1.30;;
10725;SDS011;5414;59.782;16.378;2023-04-24T06:13:27;1.50;;;1.40;;
10725;SDS011;5414;59.782;16.378;2023-04-24T06:15:53;1.83;;;1.20;;
10725;SDS011;5414;59.782;16.378;2023-04-24T06:18:19;1.50;;;1.40;;
10725;SDS011;5414;59.782;16.378;2023-04-24T06:20:46;2.27;;;1.13;;
10725;SDS011;5414;59.782;16.378;2023-04-24T06:23:12;1.60;;;1.20;;
10725;SDS011;5414;59.782;16.378;2023-04-24T06:25:38;1.67;;;1.20;;
10725;SDS011;5414;59.782;16.378;2023-04-24T06:28:04;2.27;;;1.03;;
10725;SDS011;5414;59.782;16.378;2023-04-24T06:30:31;1.50;;;1.10;;
10725;SDS011;5414;59.782;16.378;2023-04-24T06:32:57;2.80;;;1.20;;
10725;SDS011;5414;59.782;16.378;2023-04-24T06:35:23;1.20;;;1.10;;
10725;SDS011;5414;59.782;16.378;2023-04-24T06:37:49;1.60;;;1.20;;
10725;SDS011;5414;59.782;16.378;2023-04-24T06:40:15;1.37;;;1.27;;
10725;SDS011;5414;59.782;16.378;2023-04-24T06:42:43;1.63;;;1.53;;
10725;SDS011;5414;59.782;16.378;2023-04-24T06:45:09;1.50;;;1.30;;
10725;SDS011;5414;59.782;16.378;2023-04-24T06:47:36;1.40;;;1.30;;
10725;SDS011;5414;59.782;16.378;2023-04-24T06:50:03;2.30;;;1.40;;
10725;SDS011;5414;59.782;16.378;2023-04-24T06:52:29;1.70;;;1.50;;
10725;SDS011;5414;59.782;16.378;2023-04-24T06:55:01;1.87;;;1.67;;
10725;SDS011;5414;59.782;16.378;2023-04-24T06:57:28;1.33;;;1.23;;
10725;SDS011;5414;59.782;16.378;2023-04-24T06:59:54;1.80;;;1.63;;
10725;SDS011;5414;59.782;16.378;2023-04-24T07:02:20;1.50;;;1.40;;
10725;SDS011;5414;59.782;16.378;2023-04-24T07:04:46;1.40;;;1.30;;
10725;SDS011;5414;59.782;16.378;2023-04-24T07:07:13;1.50;;;1.40;;
10725;SDS011;5414;59.782;16.378;2023-04-24T07:09:39;1.30;;;1.20;;
10725;SDS011;5414;59.782;16.378;2023-04-24T07:12:07;1.50;;;1.40;;
10725;SDS011;5414;59.782;16.378;2023-04-24T07:14:33;1.40;;;1.30;;
10725;SDS011;5414;59.782;16.378;2023-04-24T07:16:59;1.20;;;1.10;;
10725;SDS011;5414;59.782;16.378;2023-04-24T07:19:26;1.57;;;1.33;;
10725;SDS011;5414;59.782;16.378;2023-04-24T07:21:52;1.37;;;1.27;;
10725;SDS011;5414;59.782;16.378;2023-04-24T07:24:20;1.50;;;1.40;;
10725;SDS011;5414;59.782;16.378;2023-04-24T07:26:46;1.20;;;1.10;;
10725;SDS011;5414;59.782;16.378;2023-04-24T07:29:12;1.30;;;1.20;;
10725;SDS011;5414;59.782;16.378;2023-04-24T07:31:39;1.40;;;1.30;;
10725;SDS011;5414;59.782;16.378;2023-04-24T07:34:06;1.87;;;1.33;;
10725;SDS011;5414;59.782;16.378;2023-04-24T07:36:32;2.43;;;1.33;;
10725;SDS011;5414;59.782;16.378;2023-04-24T07:38:58;1.63;;;1.53;;
10725;SDS011;5414;59.782;16.378;2023-04-24T07:41:24;1.50;;;1.40;;
10725;SDS011;5414;59.782;16.378;2023-04-24T07:43:50;1.37;;;1.27;;
10725;SDS011;5414;59.782;16.378;2023-04-24T07:46:17;1.50;;;1.40;;
10725;SDS011;5414;59.782;16.378;2023-04-24T07:48:43;1.43;;;1.30;;
10725;SDS011;5414;59.782;16.378;2023-04-24T07:51:09;1.67;;;1.37;;
10725;SDS011;5414;59.782;16.378;2023-04-24T07:53:38;1.40;;;1.30;;
10725;SDS011;5414;59.782;16.378;2023-04-24T07:56:04;1.63;;;1.53;;
10725;SDS011;5414;59.782;16.378;2023-04-24T07:58:30;4.40;;;1.90;;
10725;SDS011;5414;59.782;16.378;2023-04-24T08:00:56;1.50;;;1.40;;
10725;SDS011;5414;59.782;16.378;2023-04-24T08:03:22;2.20;;;1.57;;
10725;SDS011;5414;59.782;16.378;2023-04-24T08:05:49;1.73;;;1.53;;
10725;SDS011;5414;59.782;16.378;2023-04-24T08:08:16;1.67;;;1.57;;
10725;SDS011;5414;59.782;16.378;2023-04-24T08:10:42;1.90;;;1.80;;
10725;SDS011;5414;59.782;16.378;2023-04-24T08:13:08;2.10;;;1.90;;
10725;SDS011;5414;59.782;16.378;2023-04-24T08:15:36;1.70;;;1.60;;
10725;SDS011;5414;59.782;16.378;2023-04-24T08:18:02;2.37;;;1.83;;
10725;SDS011;5414;59.782;16.378;2023-04-24T08:20:28;1.80;;;1.70;;
10725;SDS011;5414;59.782;16.378;2023-04-24T08:22:54;1.53;;;1.43;;
10725;SDS011;5414;59.782;16.378;2023-04-24T08:25:21;1.63;;;1.53;;
10725;SDS011;5414;59.782;16.378;2023-04-24T08:27:48;1.47;;;1.37;;
10725;SDS011;5414;59.782;16.378;2023-04-24T08:30:14;1.60;;;1.50;;
10725;SDS011;5414;59.782;16.378;2023-04-24T08:32:40;1.53;;;1.37;;
10725;SDS011;5414;59.782;16.378;2023-04-24T08:35:06;1.63;;;1.50;;
10725;SDS011;5414;59.782;16.378;2023-04-24T08:37:36;1.67;;;1.57;;
10725;SDS011;5414;59.782;16.378;2023-04-24T08:40:26;1.50;;;1.30;;
10725;SDS011;5414;59.782;16.378;2023-04-24T08:42:48;1.90;;;1.50;;
10725;SDS011;5414;59.782;16.378;2023-04-24T08:45:15;1.50;;;1.33;;
10725;SDS011;5414;59.782;16.378;2023-04-24T08:47:41;2.23;;;1.67;;
10725;SDS011;5414;59.782;16.378;2023-04-24T08:50:09;1.50;;;1.40;;
10725;SDS011;5414;59.782;16.378;2023-04-24T08:52:35;1.60;;;1.50;;
10725;SDS011;5414;59.782;16.378;2023-04-24T08:55:01;1.80;;;1.70;;
10725;SDS011;5414;59.782;16.378;2023-04-24T08:57:28;2.10;;;1.90;;
10725;SDS011;5414;59.782;16.378;2023-04-24T08:59:54;1.90;;;1.60;;
10725;SDS011;5414;59.782;16.378;2023-04-24T09:02:21;1.63;;;1.30;;
10725;SDS011;5414;59.782;16.378;2023-04-24T09:04:47;2.83;;;1.80;;
10725;SDS011;5414;59.782;16.378;2023-04-24T09:07:14;2.17;;;1.80;;
10725;SDS011;5414;59.782;16.378;2023-04-24T09:09:42;2.20;;;2.00;;
10725;SDS011;5414;59.782;16.378;2023-04-24T09:12:08;2.90;;;1.80;;
10725;SDS011;5414;59.782;16.378;2023-04-24T09:14:35;2.03;;;1.83;;
10725;SDS011;5414;59.782;16.378;2023-04-24T09:17:04;2.10;;;1.90;;
10725;SDS011;5414;59.782;16.378;2023-04-24T09:19:31;1.70;;;1.60;;
10725;SDS011;5414;59.782;16.378;2023-04-24T09:21:57;2.00;;;1.80;;
10725;SDS011;5414;59.782;16.378;2023-04-24T09:24:23;2.27;;;1.70;;
10725;SDS011;5414;59.782;16.378;2023-04-24T09:26:49;1.50;;;1.40;;
10725;SDS011;5414;59.782;16.378;2023-04-24T09:29:22;1.57;;;1.47;;
10725;SDS011;5414;59.782;16.378;2023-04-24T09:31:48;3.60;;;1.97;;
10725;SDS011;5414;59.782;16.378;2023-04-24T09:34:18;2.10;;;1.90;;
10725;SDS011;5414;59.782;16.378;2023-04-24T09:36:46;2.80;;;2.00;;
10725;SDS011;5414;59.782;16.378;2023-04-24T09:39:13;3.50;;;1.70;;
10725;SDS011;5414;59.782;16.378;2023-04-24T09:41:51;2.30;;;2.10;;
10725;SDS011;5414;59.782;16.378;2023-04-24T09:44:21;2.20;;;2.00;;
10725;SDS011;5414;59.782;16.378;2023-04-24T09:46:51;2.23;;;2.03;;
10725;SDS011;5414;59.782;16.378;2023-04-24T09:49:21;2.40;;;2.20;;
10725;SDS011;5414;59.782;16.378;2023-04-24T09:51:47;3.20;;;2.33;;
10725;SDS011;5414;59.782;16.378;2023-04-24T09:54:20;2.87;;;2.67;;
10725;SDS011;5414;59.782;16.378;2023-04-24T09:56:48;2.80;;;2.53;;
10725;SDS011;5414;59.782;16.378;2023-04-24T09:59:15;3.13;;;2.83;;
10725;SDS011;5414;59.782;16.378;2023-04-24T10:01:41;3.20;;;2.90;;
10725;SDS011;5414;59.782;16.378;2023-04-24T10:04:20;3.00;;;2.70;;
10725;SDS011;5414;59.782;16.378;2023-04-24T10:06:47;2.77;;;2.57;;
10725;SDS011;5414;59.782;16.378;2023-04-24T10:09:14;3.20;;;2.80;;
10725;SDS011;5414;59.782;16.378;2023-04-24T10:11:41;3.13;;;2.77;;
10725;SDS011;5414;59.782;16.378;2023-04-24T10:14:09;4.03;;;3.50;;
10725;SDS011;5414;59.782;16.378;2023-04-24T10:16:35;3.43;;;2.83;;
10725;SDS011;5414;59.782;16.378;2023-04-24T10:19:01;3.63;;;2.80;;
10725;SDS011;5414;59.782;16.378;2023-04-24T10:21:28;3.30;;;3.00;;
10725;SDS011;5414;59.782;16.378;2023-04-24T10:23:55;3.57;;;2.67;;
10725;SDS011;5414;59.782;16.378;2023-04-24T10:26:21;3.50;;;2.93;;
10725;SDS011;5414;59.782;16.378;2023-04-24T10:28:48;3.80;;;3.50;;
10725;SDS011;5414;59.782;16.378;2023-04-24T10:31:14;4.03;;;3.37;;
10725;SDS011;5414;59.782;16.378;2023-04-24T10:33:41;4.33;;;3.93;;
10725;SDS011;5414;59.782;16.378;2023-04-24T10:36:08;4.60;;;3.43;;
10725;SDS011;5414;59.782;16.378;2023-04-24T10:38:35;3.70;;;3.37;;
10725;SDS011;5414;59.782;16.378;2023-04-24T10:41:09;4.77;;;3.70;;
10725;SDS011;5414;59.782;16.378;2023-04-24T10:43:40;4.20;;;3.80;;
10725;SDS011;5414;59.782;16.378;2023-04-24T10:46:07;4.00;;;3.60;;
10725;SDS011;5414;59.782;16.378;2023-04-24T10:48:35;4.13;;;3.63;;
10725;SDS011;5414;59.782;16.378;2023-04-24T10:51:01;4.10;;;3.70;;
10725;SDS011;5414;59.782;16.378;2023-04-24T10:53:28;5.23;;;4.73;;
10725;SDS011;5414;59.782;16.378;2023-04-24T10:55:59;5.00;;;4.50;;
10725;SDS011;5414;59.782;16.378;2023-04-24T11:03:50;4.83;;;4.33;;
10725;SDS011;5414;59.782;16.378;2023-04-24T11:06:21;5.30;;;4.50;;
10725;SDS011;5414;59.782;16.378;2023-04-24T11:08:57;4.60;;;4.20;;
10725;SDS011;5414;59.782;16.378;2023-04-24T11:11:24;4.90;;;4.40;;
10725;SDS011;5414;59.782;16.378;2023-04-24T11:18:57;5.53;;;5.03;;
10725;SDS011;5414;59.782;16.378;2023-04-24T11:21:25;6.17;;;5.00;;
10725;SDS011;5414;59.782;16.378;2023-04-24T11:23:56;6.30;;;5.20;;
10725;SDS011;5414;59.782;16.378;2023-04-24T11:26:23;5.40;;;4.90;;
10725;SDS011;5414;59.782;16.378;2023-04-24T11:29:05;5.77;;;5.23;;
10725;SDS011;5414;59.782;16.378;2023-04-24T11:34:08;6.17;;;5.57;;
10725;SDS011;5414;59.782;16.378;2023-04-24T11:36:34;6.27;;;5.63;;
10725;SDS011;5414;59.782;16.378;2023-04-24T11:39:01;5.70;;;5.07;;
10725;SDS011;5414;59.782;16.378;2023-04-24T11:41:27;6.10;;;5.50;;
10725;SDS011;5414;59.782;16.378;2023-04-24T11:43:53;5.30;;;4.57;;
10725;SDS011;5414;59.782;16.378;2023-04-24T11:46:23;5.10;;;4.60;;
10725;SDS011;5414;59.782;16.378;2023-04-24T11:48:49;5.80;;;5.20;;
10725;SDS011;5414;59.782;16.378;2023-04-24T11:51:15;7.17;;;5.87;;
10725;SDS011;5414;59.782;16.378;2023-04-24T11:53:41;6.13;;;5.50;;
10725;SDS011;5414;59.782;16.378;2023-04-24T11:56:08;6.87;;;5.97;;
10725;SDS011;5414;59.782;16.378;2023-04-24T11:58:38;6.10;;;5.50;;
10725;SDS011;5414;59.782;16.378;2023-04-24T12:01:04;5.20;;;4.70;;
10725;SDS011;5414;59.782;16.378;2023-04-24T12:03:31;6.07;;;4.73;;
10725;SDS011;5414;59.782;16.378;2023-04-24T12:06:07;4.77;;;4.37;;
10725;SDS011;5414;59.782;16.378;2023-04-24T12:08:33;4.90;;;4.47;;
10725;SDS011;5414;59.782;16.378;2023-04-24T12:11:02;4.80;;;4.40;;
10725;SDS011;5414;59.782;16.378;2023-04-24T12:13:29;5.10;;;4.60;;
10725;SDS011;5414;59.782;16.378;2023-04-24T12:15:56;4.67;;;4.20;;
10725;SDS011;5414;59.782;16.378;2023-04-24T12:18:23;4.23;;;3.90;;
10725;SDS011;5414;59.782;16.378;2023-04-24T12:20:49;5.13;;;4.37;;
10725;SDS011;5414;59.782;16.378;2023-04-24T12:23:15;6.27;;;4.10;;
10725;SDS011;5414;59.782;16.378;2023-04-24T12:25:42;4.60;;;3.80;;
10725;SDS011;5414;59.782;16.378;2023-04-24T12:28:10;4.60;;;3.77;;
10725;SDS011;5414;59.782;16.378;2023-04-24T12:30:48;5.83;;;4.27;;
10725;SDS011;5414;59.782;16.378;2023-04-24T12:33:19;4.03;;;3.73;;
10725;SDS011;5414;59.782;16.378;2023-04-24T12:35:45;5.47;;;3.63;;
10725;SDS011;5414;59.782;16.378;2023-04-24T12:38:12;4.53;;;4.00;;
10725;SDS011;5414;59.782;16.378;2023-04-24T12:40:42;4.40;;;3.70;;
10725;SDS011;5414;59.782;16.378;2023-04-24T12:43:15;3.90;;;3.23;;
10725;SDS011;5414;59.782;16.378;2023-04-24T12:45:41;4.23;;;3.40;;
10725;SDS011;5414;59.782;16.378;2023-04-24T12:48:07;4.50;;;3.90;;
10725;SDS011;5414;59.782;16.378;2023-04-24T12:50:33;3.73;;;3.43;;
10725;SDS011;5414;59.782;16.378;2023-04-24T12:52:59;3.70;;;3.40;;
10725;SDS011;5414;59.782;16.378;2023-04-24T12:55:25;4.43;;;3.50;;
10725;SDS011;5414;59.782;16.378;2023-04-24T12:57:51;3.90;;;3.60;;
10725;SDS011;5414;59.782;16.378;2023-04-24T13:00:20;3.60;;;3.30;;
10725;SDS011;5414;59.782;16.378;2023-04-24T13:02:46;6.83;;;3.57;;
10725;SDS011;5414;59.782;16.378;2023-04-24T13:05:12;4.20;;;3.80;;
10725;SDS011;5414;59.782;16.378;2023-04-24T13:07:39;4.13;;;3.73;;
10725;SDS011;5414;59.782;16.378;2023-04-24T13:10:07;4.40;;;3.93;;
10725;SDS011;5414;59.782;16.378;2023-04-24T13:12:33;4.90;;;4.20;;
10725;SDS011;5414;59.782;16.378;2023-04-24T13:15:00;4.70;;;4.20;;
10725;SDS011;5414;59.782;16.378;2023-04-24T13:17:26;4.73;;;4.30;;
10725;SDS011;5414;59.782;16.378;2023-04-24T13:19:54;4.80;;;4.10;;
10725;SDS011;5414;59.782;16.378;2023-04-24T13:22:20;4.53;;;4.13;;
10725;SDS011;5414;59.782;16.378;2023-04-24T13:24:46;4.73;;;4.23;;
10725;SDS011;5414;59.782;16.378;2023-04-24T13:27:14;5.13;;;4.63;;
10725;SDS011;5414;59.782;16.378;2023-04-24T13:29:40;4.30;;;3.87;;
10725;SDS011;5414;59.782;16.378;2023-04-24T13:32:06;4.80;;;4.00;;
10725;SDS011;5414;59.782;16.378;2023-04-24T13:34:32;4.07;;;3.70;;
10725;SDS011;5414;59.782;16.378;2023-04-24T13:36:59;4.40;;;4.00;;
10725;SDS011;5414;59.782;16.378;2023-04-24T13:39:25;4.77;;;4.20;;
10725;SDS011;5414;59.782;16.378;2023-04-24T13:41:51;4.23;;;3.83;;
10725;SDS011;5414;59.782;16.378;2023-04-24T13:44:18;4.67;;;3.77;;
10725;SDS011;5414;59.782;16.378;2023-04-24T13:46:45;4.37;;;3.97;;
10725;SDS011;5414;59.782;16.378;2023-04-24T13:49:12;5.63;;;4.07;;
10725;SDS011;5414;59.782;16.378;2023-04-24T13:51:39;5.57;;;4.03;;
10725;SDS011;5414;59.782;16.378;2023-04-24T13:54:05;4.70;;;4.03;;
10725;SDS011;5414;59.782;16.378;2023-04-24T13:56:31;4.77;;;4.20;;
10725;SDS011;5414;59.782;16.378;2023-04-24T13:58:57;4.67;;;4.10;;
10725;SDS011;5414;59.782;16.378;2023-04-24T14:01:23;5.70;;;4.43;;
10725;SDS011;5414;59.782;16.378;2023-04-24T14:03:53;5.63;;;4.40;;
10725;SDS011;5414;59.782;16.378;2023-04-24T14:06:19;5.13;;;4.63;;
10725;SDS011;5414;59.782;16.378;2023-04-24T14:08:45;5.20;;;4.70;;
10725;SDS011;5414;59.782;16.378;2023-04-24T14:11:11;5.30;;;4.80;;
10725;SDS011;5414;59.782;16.378;2023-04-24T14:13:37;6.53;;;4.50;;
10725;SDS011;5414;59.782;16.378;2023-04-24T14:16:04;5.37;;;4.43;;
10725;SDS011;5414;59.782;16.378;2023-04-24T14:18:30;7.43;;;4.73;;
10725;SDS011;5414;59.782;16.378;2023-04-24T14:20:56;6.43;;;4.33;;
10725;SDS011;5414;59.782;16.378;2023-04-24T14:23:22;5.63;;;4.87;;
10725;SDS011;5414;59.782;16.378;2023-04-24T14:25:48;5.40;;;4.50;;
10725;SDS011;5414;59.782;16.378;2023-04-24T14:28:17;6.23;;;5.00;;
10725;SDS011;5414;59.782;16.378;2023-04-24T14:30:45;5.70;;;4.90;;
10725;SDS011;5414;59.782;16.378;2023-04-24T14:33:11;6.13;;;5.13;;
10725;SDS011;5414;59.782;16.378;2023-04-24T14:35:38;6.17;;;5.17;;
10725;SDS011;5414;59.782;16.378;2023-04-24T14:38:04;5.87;;;5.27;;
10725;SDS011;5414;59.782;16.378;2023-04-24T14:40:30;5.13;;;4.63;;
10725;SDS011;5414;59.782;16.378;2023-04-24T14:42:57;5.80;;;4.43;;
10725;SDS011;5414;59.782;16.378;2023-04-24T14:45:24;5.60;;;4.83;;
10725;SDS011;5414;59.782;16.378;2023-04-24T14:47:50;5.77;;;4.93;;
10725;SDS011;5414;59.782;16.378;2023-04-24T14:50:16;5.50;;;5.00;;
10725;SDS011;5414;59.782;16.378;2023-04-24T14:52:42;5.43;;;4.67;;
10725;SDS011;5414;59.782;16.378;2023-04-24T14:55:08;5.53;;;5.03;;
10725;SDS011;5414;59.782;16.378;2023-04-24T14:57:34;5.87;;;5.07;;
10725;SDS011;5414;59.782;16.378;2023-04-24T15:00:02;5.40;;;4.90;;